BBC389 VTBS-VGHS
Flight info
| Callsign | BBC389 |
|---|---|
| Flight time | 2h 4m |
| Altitude | 40000 |
| Route | NUNLI1J NUNLI/N0481F430 L507 BGO G463 DAC |
| Aircraft | B788/H-SDE2E3FGHIRWXY/L |
Departure
| Time | 2026-04-24 10:01 |
|---|---|
| Airport | Suvarnabhumi Airport (VTBS) |
Arrival
| Time | 2026-04-24 12:06 |
|---|---|
| Airport | Hazrat Shahjalal International Airport (VGHS) |
| Time | Latitude | Longitude | Altitude | Speed | Heading |
|---|---|---|---|---|---|
| 2026-04-24 09:35 | 13.68954 | 100.74690 | 19 ft | 0 kts | 283° |
| 2026-04-24 09:39 | 13.68954 | 100.74691 | 19 ft | 0 kts | 283° |
| 2026-04-24 09:48 | 13.68951 | 100.74703 | 23 ft | 4 kts | 283° |
| 2026-04-24 09:48 | 13.68945 | 100.74730 | 20 ft | 4 kts | 279° |
| 2026-04-24 09:48 | 13.68942 | 100.74748 | 19 ft | 2 kts | 258° |
| 2026-04-24 09:48 | 13.68944 | 100.74760 | 21 ft | 2 kts | 212° |
| 2026-04-24 09:49 | 13.68954 | 100.74766 | 24 ft | 2 kts | 195° |
| 2026-04-24 09:49 | 13.68964 | 100.74769 | 21 ft | 2 kts | 192° |
| 2026-04-24 09:49 | 13.68966 | 100.74769 | 22 ft | 0 kts | 192° |
| 2026-04-24 09:52 | 13.68962 | 100.74768 | 24 ft | 1 kts | 192° |
| 2026-04-24 09:52 | 13.68945 | 100.74764 | 22 ft | 4 kts | 192° |
| 2026-04-24 09:52 | 13.68911 | 100.74756 | 20 ft | 6 kts | 192° |
| 2026-04-24 09:52 | 13.68864 | 100.74744 | 19 ft | 8 kts | 194° |
| 2026-04-24 09:53 | 13.68803 | 100.74728 | 19 ft | 10 kts | 195° |
| 2026-04-24 09:53 | 13.68730 | 100.74714 | 21 ft | 11 kts | 174° |
| 2026-04-24 09:53 | 13.68679 | 100.74766 | 19 ft | 11 kts | 114° |
| 2026-04-24 09:53 | 13.68673 | 100.74792 | 20 ft | 0 kts | 103° |
| 2026-04-24 09:54 | 13.68671 | 100.74798 | 20 ft | 2 kts | 104° |
| 2026-04-24 09:54 | 13.68665 | 100.74823 | 19 ft | 5 kts | 104° |
| 2026-04-24 09:54 | 13.68653 | 100.74871 | 19 ft | 9 kts | 105° |
| 2026-04-24 09:54 | 13.68634 | 100.74943 | 19 ft | 12 kts | 104° |
| 2026-04-24 09:55 | 13.68610 | 100.75038 | 19 ft | 15 kts | 105° |
| 2026-04-24 09:55 | 13.68582 | 100.75151 | 19 ft | 18 kts | 103° |
| 2026-04-24 09:55 | 13.68549 | 100.75283 | 19 ft | 20 kts | 104° |
| 2026-04-24 09:55 | 13.68511 | 100.75430 | 19 ft | 22 kts | 104° |
| 2026-04-24 09:56 | 13.68471 | 100.75591 | 20 ft | 24 kts | 104° |
| 2026-04-24 09:56 | 13.68455 | 100.75701 | 19 ft | 11 kts | 73° |
| 2026-04-24 09:56 | 13.68513 | 100.75739 | 20 ft | 11 kts | 14° |
| 2026-04-24 09:56 | 13.68599 | 100.75762 | 20 ft | 15 kts | 14° |
| 2026-04-24 09:57 | 13.68715 | 100.75792 | 20 ft | 19 kts | 14° |
| 2026-04-24 09:57 | 13.68846 | 100.75827 | 19 ft | 20 kts | 14° |
| 2026-04-24 09:57 | 13.68976 | 100.75861 | 20 ft | 9 kts | 14° |
| 2026-04-24 09:57 | 13.69006 | 100.75869 | 19 ft | 1 kts | 14° |
| 2026-04-24 09:58 | 13.69028 | 100.75875 | 19 ft | 5 kts | 14° |
| 2026-04-24 09:58 | 13.69078 | 100.75888 | 19 ft | 9 kts | 14° |
| 2026-04-24 09:58 | 13.69156 | 100.75908 | 19 ft | 12 kts | 17° |
| 2026-04-24 09:58 | 13.69199 | 100.75958 | 19 ft | 8 kts | 76° |
| 2026-04-24 09:59 | 13.69199 | 100.75972 | 19 ft | 0 kts | 91° |
| 2026-04-24 09:59 | 13.69198 | 100.75981 | 19 ft | 2 kts | 95° |
| 2026-04-24 09:59 | 13.69193 | 100.76006 | 18 ft | 5 kts | 103° |
| 2026-04-24 10:00 | 13.69180 | 100.76046 | 18 ft | 7 kts | 109° |
| 2026-04-24 10:00 | 13.69147 | 100.76086 | 18 ft | 7 kts | 147° |
| 2026-04-24 10:00 | 13.69107 | 100.76087 | 19 ft | 6 kts | 186° |
| 2026-04-24 10:00 | 13.69047 | 100.76073 | 20 ft | 23 kts | 194° |
| 2026-04-24 10:01 | 13.68661 | 100.75971 | 25 ft | 91 kts | 194° |
| 2026-04-24 10:01 | 13.67838 | 100.75757 | 35 ft | 148 kts | 194° |
| 2026-04-24 10:01 | 13.66784 | 100.75505 | 522 ft | 164 kts | 188° |
| 2026-04-24 10:01 | 13.65657 | 100.75271 | 1365 ft | 157 kts | 189° |
| 2026-04-24 10:02 | 13.64596 | 100.75251 | 2226 ft | 156 kts | 177° |
| 2026-04-24 10:02 | 13.63460 | 100.75279 | 2888 ft | 174 kts | 178° |
| 2026-04-24 10:02 | 13.62181 | 100.75270 | 3498 ft | 193 kts | 179° |
| 2026-04-24 10:02 | 13.60750 | 100.75255 | 4048 ft | 216 kts | 177° |
| 2026-04-24 10:03 | 13.59225 | 100.75637 | 4667 ft | 237 kts | 163° |
| 2026-04-24 10:03 | 13.57588 | 100.76118 | 5402 ft | 258 kts | 164° |
| 2026-04-24 10:03 | 13.55780 | 100.76627 | 6271 ft | 275 kts | 164° |
| 2026-04-24 10:03 | 13.53910 | 100.77157 | 7349 ft | 281 kts | 164° |
| 2026-04-24 10:04 | 13.52002 | 100.77704 | 8449 ft | 286 kts | 164° |
| 2026-04-24 10:04 | 13.50055 | 100.78262 | 9276 ft | 304 kts | 164° |
| 2026-04-24 10:04 | 13.47853 | 100.78535 | 9729 ft | 326 kts | 189° |
| 2026-04-24 10:04 | 13.45676 | 100.77873 | 10672 ft | 335 kts | 208° |
| 2026-04-24 10:05 | 13.43884 | 100.76300 | 11216 ft | 355 kts | 233° |
| 2026-04-24 10:05 | 13.42823 | 100.73970 | 11948 ft | 366 kts | 257° |
| 2026-04-24 10:05 | 13.42718 | 100.71346 | 12816 ft | 372 kts | 278° |
| 2026-04-24 10:05 | 13.43419 | 100.68772 | 13696 ft | 377 kts | 290° |
| 2026-04-24 10:06 | 13.44401 | 100.66252 | 14480 ft | 382 kts | 292° |
| 2026-04-24 10:06 | 13.46412 | 100.61123 | 16040 ft | 392 kts | 301° |
| 2026-04-24 10:06 | 13.48168 | 100.58977 | 16794 ft | 396 kts | 320° |
| 2026-04-24 10:07 | 13.50504 | 100.57509 | 17532 ft | 401 kts | 338° |
| 2026-04-24 10:07 | 13.53234 | 100.56841 | 18212 ft | 405 kts | 355° |
| 2026-04-24 10:07 | 13.56075 | 100.56858 | 18816 ft | 410 kts | 4° |
| 2026-04-24 10:07 | 13.58891 | 100.57140 | 19422 ft | 413 kts | 6° |
| 2026-04-24 10:08 | 13.61774 | 100.57416 | 20042 ft | 417 kts | 3° |
| 2026-04-24 10:08 | 13.64685 | 100.57474 | 20649 ft | 420 kts | 359° |
| 2026-04-24 10:08 | 13.67621 | 100.57453 | 21253 ft | 423 kts | 0° |
| 2026-04-24 10:08 | 13.70582 | 100.57526 | 21846 ft | 426 kts | 2° |
| 2026-04-24 10:09 | 13.73528 | 100.57651 | 22408 ft | 429 kts | 1° |
| 2026-04-24 10:09 | 13.76512 | 100.57479 | 22972 ft | 431 kts | 349° |
| 2026-04-24 10:09 | 13.79396 | 100.56607 | 23488 ft | 433 kts | 336° |
| 2026-04-24 10:09 | 13.82050 | 100.55125 | 23929 ft | 436 kts | 329° |
| 2026-04-24 10:10 | 13.84655 | 100.53504 | 24348 ft | 439 kts | 328° |
| 2026-04-24 10:10 | 13.87228 | 100.51870 | 24792 ft | 441 kts | 328° |
| 2026-04-24 10:10 | 13.89850 | 100.50210 | 25224 ft | 443 kts | 328° |
| 2026-04-24 10:10 | 13.92499 | 100.48551 | 25662 ft | 446 kts | 329° |
| 2026-04-24 10:11 | 13.95299 | 100.47157 | 26107 ft | 448 kts | 340° |
| 2026-04-24 10:11 | 13.98282 | 100.46174 | 26524 ft | 451 kts | 342° |
| 2026-04-24 10:11 | 14.01299 | 100.45218 | 26977 ft | 454 kts | 342° |
| 2026-04-24 10:11 | 14.04335 | 100.44268 | 27410 ft | 457 kts | 342° |
| 2026-04-24 10:12 | 14.07343 | 100.43316 | 27862 ft | 460 kts | 342° |
| 2026-04-24 10:12 | 14.10412 | 100.42335 | 28309 ft | 463 kts | 342° |
| 2026-04-24 10:12 | 14.13506 | 100.41352 | 28774 ft | 466 kts | 342° |
| 2026-04-24 10:12 | 14.15568 | 100.40699 | 29078 ft | 468 kts | 342° |
| 2026-04-24 10:13 | 14.18693 | 100.39710 | 29536 ft | 471 kts | 342° |
| 2026-04-24 10:13 | 14.22876 | 100.38380 | 30092 ft | 476 kts | 342° |
| 2026-04-24 10:13 | 14.25023 | 100.37696 | 30366 ft | 478 kts | 342° |
| 2026-04-24 10:13 | 14.28171 | 100.36697 | 30744 ft | 481 kts | 342° |
| 2026-04-24 10:14 | 14.31389 | 100.35675 | 31128 ft | 484 kts | 342° |
| 2026-04-24 10:14 | 14.34621 | 100.34647 | 31521 ft | 487 kts | 342° |
| 2026-04-24 10:14 | 14.38934 | 100.33264 | 32027 ft | 490 kts | 340° |
| 2026-04-24 10:14 | 14.41059 | 100.32342 | 32293 ft | 491 kts | 332° |
| 2026-04-24 10:15 | 14.43939 | 100.30506 | 32668 ft | 493 kts | 322° |
| 2026-04-24 10:15 | 14.46483 | 100.28112 | 33057 ft | 495 kts | 311° |
| 2026-04-24 10:15 | 14.48551 | 100.25264 | 33548 ft | 495 kts | 301° |
| 2026-04-24 10:15 | 14.50101 | 100.22093 | 34068 ft | 493 kts | 295° |
| 2026-04-24 10:16 | 14.51523 | 100.18868 | 34531 ft | 493 kts | 294° |
| 2026-04-24 10:16 | 14.52905 | 100.15632 | 34983 ft | 493 kts | 294° |
| 2026-04-24 10:16 | 14.54257 | 100.12420 | 35438 ft | 492 kts | 294° |
| 2026-04-24 10:16 | 14.55638 | 100.09189 | 35904 ft | 492 kts | 294° |
| 2026-04-24 10:17 | 14.57032 | 100.05957 | 36378 ft | 491 kts | 294° |
| 2026-04-24 10:17 | 14.58417 | 100.02724 | 36836 ft | 490 kts | 293° |
| 2026-04-24 10:17 | 14.59789 | 99.99497 | 37314 ft | 490 kts | 293° |
| 2026-04-24 10:17 | 14.61145 | 99.96316 | 37785 ft | 489 kts | 293° |
| 2026-04-24 10:18 | 14.62519 | 99.93105 | 38252 ft | 488 kts | 293° |
| 2026-04-24 10:18 | 14.63893 | 99.89890 | 38661 ft | 487 kts | 293° |
| 2026-04-24 10:18 | 14.65257 | 99.86689 | 39051 ft | 486 kts | 293° |
| 2026-04-24 10:18 | 14.66619 | 99.83489 | 39446 ft | 485 kts | 294° |
| 2026-04-24 10:19 | 14.67975 | 99.80310 | 39843 ft | 483 kts | 294° |
| 2026-04-24 10:19 | 14.69311 | 99.77176 | 40240 ft | 482 kts | 294° |
| 2026-04-24 10:19 | 14.70657 | 99.74013 | 40632 ft | 480 kts | 294° |
| 2026-04-24 10:19 | 14.71999 | 99.70857 | 41031 ft | 478 kts | 294° |
| 2026-04-24 10:20 | 14.73337 | 99.67713 | 41432 ft | 477 kts | 294° |
| 2026-04-24 10:20 | 14.74669 | 99.64580 | 41838 ft | 475 kts | 294° |
| 2026-04-24 10:20 | 14.75996 | 99.61459 | 42218 ft | 473 kts | 294° |
| 2026-04-24 10:20 | 14.77317 | 99.58349 | 42598 ft | 472 kts | 294° |
| 2026-04-24 10:21 | 14.78632 | 99.55252 | 42750 ft | 471 kts | 294° |
| 2026-04-24 10:21 | 14.81231 | 99.49128 | 42758 ft | 462 kts | 294° |
| 2026-04-24 10:22 | 14.83803 | 99.43061 | 42766 ft | 464 kts | 294° |
| 2026-04-24 10:22 | 14.86783 | 99.37182 | 42780 ft | 462 kts | 308° |
| 2026-04-24 10:23 | 14.90832 | 99.32008 | 42782 ft | 462 kts | 309° |
| 2026-04-24 10:23 | 14.94872 | 99.26891 | 42796 ft | 462 kts | 309° |
| 2026-04-24 10:24 | 14.98930 | 99.21743 | 42795 ft | 462 kts | 309° |
| 2026-04-24 10:24 | 15.03005 | 99.16567 | 42802 ft | 463 kts | 309° |
| 2026-04-24 10:25 | 15.07048 | 99.11433 | 42806 ft | 462 kts | 309° |
| 2026-04-24 10:25 | 15.11117 | 99.06260 | 42813 ft | 462 kts | 309° |
| 2026-04-24 10:26 | 15.15160 | 99.01117 | 42826 ft | 462 kts | 309° |
| 2026-04-24 10:26 | 15.19232 | 98.95933 | 42827 ft | 463 kts | 309° |
| 2026-04-24 10:27 | 15.23292 | 98.90762 | 42823 ft | 463 kts | 308° |
| 2026-04-24 10:27 | 15.27354 | 98.85585 | 42829 ft | 463 kts | 308° |
| 2026-04-24 10:28 | 15.31393 | 98.80432 | 42819 ft | 463 kts | 308° |
| 2026-04-24 10:28 | 15.35455 | 98.75248 | 42817 ft | 462 kts | 308° |
| 2026-04-24 10:29 | 15.39488 | 98.70096 | 42809 ft | 462 kts | 308° |
| 2026-04-24 10:29 | 15.43547 | 98.64908 | 42805 ft | 462 kts | 308° |
| 2026-04-24 10:30 | 15.47617 | 98.59735 | 42804 ft | 463 kts | 312° |
| 2026-04-24 10:30 | 15.52385 | 98.55273 | 42794 ft | 464 kts | 318° |
| 2026-04-24 10:31 | 15.57306 | 98.50915 | 42790 ft | 465 kts | 318° |
| 2026-04-24 10:31 | 15.62175 | 98.46558 | 42787 ft | 464 kts | 318° |
| 2026-04-24 10:32 | 15.67083 | 98.42184 | 42784 ft | 464 kts | 317° |
| 2026-04-24 10:32 | 15.71987 | 98.37801 | 42779 ft | 464 kts | 317° |
| 2026-04-24 10:33 | 15.76860 | 98.33447 | 42774 ft | 464 kts | 317° |
| 2026-04-24 10:33 | 15.81760 | 98.29064 | 42779 ft | 464 kts | 317° |
| 2026-04-24 10:34 | 15.86651 | 98.24687 | 42763 ft | 464 kts | 317° |
| 2026-04-24 10:34 | 15.91508 | 98.20338 | 42770 ft | 463 kts | 317° |
| 2026-04-24 10:35 | 15.96394 | 98.15959 | 42769 ft | 463 kts | 317° |
| 2026-04-24 10:35 | 16.01279 | 98.11579 | 42767 ft | 463 kts | 317° |
| 2026-04-24 10:36 | 16.06127 | 98.07229 | 42765 ft | 462 kts | 317° |
| 2026-04-24 10:36 | 16.10995 | 98.02858 | 42767 ft | 462 kts | 317° |
| 2026-04-24 10:37 | 16.15864 | 97.98483 | 42762 ft | 461 kts | 317° |
| 2026-04-24 10:37 | 16.20691 | 97.94143 | 42761 ft | 461 kts | 317° |
| 2026-04-24 10:38 | 16.25552 | 97.89770 | 42764 ft | 461 kts | 317° |
| 2026-04-24 10:38 | 16.30408 | 97.85397 | 42760 ft | 461 kts | 317° |
| 2026-04-24 10:39 | 16.35264 | 97.81022 | 42760 ft | 461 kts | 316° |
| 2026-04-24 10:39 | 16.39491 | 97.76070 | 42762 ft | 458 kts | 306° |
| 2026-04-24 10:40 | 16.43391 | 97.70857 | 42767 ft | 458 kts | 306° |
| 2026-04-24 10:40 | 16.47323 | 97.65622 | 42765 ft | 458 kts | 306° |
| 2026-04-24 10:41 | 16.51256 | 97.60373 | 42764 ft | 458 kts | 306° |
| 2026-04-24 10:41 | 16.55174 | 97.55142 | 42769 ft | 465 kts | 305° |
| 2026-04-24 10:42 | 16.59157 | 97.49824 | 42775 ft | 464 kts | 305° |
| 2026-04-24 10:42 | 16.63135 | 97.44504 | 42772 ft | 465 kts | 305° |
| 2026-04-24 10:43 | 16.67120 | 97.39174 | 42777 ft | 465 kts | 305° |
| 2026-04-24 10:43 | 16.71068 | 97.33887 | 42773 ft | 464 kts | 305° |
| 2026-04-24 10:44 | 16.75033 | 97.28574 | 42779 ft | 464 kts | 305° |
| 2026-04-24 10:44 | 16.79001 | 97.23252 | 42775 ft | 463 kts | 305° |
| 2026-04-24 10:45 | 16.82964 | 97.17934 | 42778 ft | 463 kts | 304° |
| 2026-04-24 10:45 | 16.86890 | 97.12661 | 42773 ft | 462 kts | 304° |
| 2026-04-24 10:46 | 16.90837 | 97.07356 | 42776 ft | 462 kts | 304° |
| 2026-04-24 10:46 | 16.94785 | 97.02045 | 42778 ft | 461 kts | 304° |
| 2026-04-24 10:47 | 16.98700 | 96.96775 | 42777 ft | 461 kts | 304° |
| 2026-04-24 10:47 | 17.02635 | 96.91474 | 42768 ft | 461 kts | 304° |
| 2026-04-24 10:48 | 17.06564 | 96.86177 | 42768 ft | 460 kts | 304° |
| 2026-04-24 10:48 | 17.10463 | 96.80916 | 42765 ft | 460 kts | 304° |
| 2026-04-24 10:49 | 17.14389 | 96.75615 | 42765 ft | 460 kts | 304° |
| 2026-04-24 10:49 | 17.18309 | 96.70318 | 42760 ft | 459 kts | 304° |
| 2026-04-24 10:50 | 17.22196 | 96.65061 | 42759 ft | 458 kts | 304° |
| 2026-04-24 10:50 | 17.26096 | 96.59784 | 42755 ft | 458 kts | 304° |
| 2026-04-24 10:51 | 17.30002 | 96.54493 | 42753 ft | 458 kts | 304° |
| 2026-04-24 10:51 | 17.34339 | 96.49645 | 42755 ft | 463 kts | 314° |
| 2026-04-24 10:52 | 17.39139 | 96.45140 | 42752 ft | 462 kts | 314° |
| 2026-04-24 10:52 | 17.43931 | 96.40632 | 42749 ft | 462 kts | 314° |
| 2026-04-24 10:53 | 17.48696 | 96.36146 | 42754 ft | 462 kts | 314° |
| 2026-04-24 10:53 | 17.53482 | 96.31638 | 42751 ft | 462 kts | 314° |
| 2026-04-24 10:54 | 17.58230 | 96.27161 | 42751 ft | 461 kts | 314° |
| 2026-04-24 10:54 | 17.63005 | 96.22658 | 42753 ft | 461 kts | 314° |
| 2026-04-24 10:55 | 17.67774 | 96.18155 | 42747 ft | 460 kts | 314° |
| 2026-04-24 10:55 | 17.72539 | 96.13654 | 42748 ft | 460 kts | 314° |
| 2026-04-24 10:56 | 17.77295 | 96.09157 | 42746 ft | 460 kts | 314° |
| 2026-04-24 10:56 | 17.82016 | 96.04689 | 42748 ft | 460 kts | 314° |
| 2026-04-24 10:57 | 17.86763 | 96.00195 | 42750 ft | 459 kts | 314° |
| 2026-04-24 10:57 | 17.91511 | 95.95695 | 42749 ft | 459 kts | 314° |
| 2026-04-24 10:58 | 17.96263 | 95.91189 | 42747 ft | 459 kts | 313° |
| 2026-04-24 10:58 | 18.00975 | 95.86717 | 42749 ft | 459 kts | 314° |
| 2026-04-24 10:59 | 18.05719 | 95.82211 | 42750 ft | 459 kts | 313° |
| 2026-04-24 10:59 | 18.10465 | 95.77701 | 42734 ft | 459 kts | 313° |
| 2026-04-24 11:00 | 18.15178 | 95.73218 | 42732 ft | 459 kts | 313° |
| 2026-04-24 11:00 | 18.19921 | 95.68702 | 42731 ft | 459 kts | 313° |
| 2026-04-24 11:01 | 18.24661 | 95.64188 | 42739 ft | 459 kts | 313° |
| 2026-04-24 11:01 | 18.29363 | 95.59704 | 42744 ft | 459 kts | 313° |
| 2026-04-24 11:02 | 18.34095 | 95.55189 | 42741 ft | 459 kts | 313° |
| 2026-04-24 11:02 | 18.38830 | 95.50669 | 42731 ft | 459 kts | 313° |
| 2026-04-24 11:03 | 18.42760 | 95.46913 | 42730 ft | 459 kts | 313° |
| 2026-04-24 11:03 | 18.47557 | 95.42461 | 42729 ft | 459 kts | 314° |
| 2026-04-24 11:04 | 18.52356 | 95.38018 | 42732 ft | 459 kts | 314° |
| 2026-04-24 11:04 | 18.57195 | 95.33610 | 42734 ft | 459 kts | 314° |
| 2026-04-24 11:05 | 18.61975 | 95.29217 | 42735 ft | 459 kts | 314° |
| 2026-04-24 11:05 | 18.66802 | 95.24792 | 42741 ft | 459 kts | 314° |
| 2026-04-24 11:06 | 18.71622 | 95.20366 | 42746 ft | 459 kts | 314° |
| 2026-04-24 11:06 | 18.76436 | 95.15942 | 42749 ft | 459 kts | 314° |
| 2026-04-24 11:07 | 18.83626 | 95.09328 | 42758 ft | 459 kts | 314° |
| 2026-04-24 11:07 | 18.88437 | 95.04899 | 42758 ft | 459 kts | 314° |
| 2026-04-24 11:08 | 18.93253 | 95.00462 | 42765 ft | 459 kts | 314° |
| 2026-04-24 11:08 | 18.98042 | 94.96046 | 42770 ft | 459 kts | 314° |
| 2026-04-24 11:09 | 19.02849 | 94.91609 | 42772 ft | 459 kts | 314° |
| 2026-04-24 11:09 | 19.07663 | 94.87162 | 42780 ft | 459 kts | 314° |
| 2026-04-24 11:10 | 19.12456 | 94.82732 | 42787 ft | 459 kts | 314° |
| 2026-04-24 11:10 | 19.17276 | 94.78273 | 42792 ft | 459 kts | 314° |
| 2026-04-24 11:11 | 19.22087 | 94.73818 | 42788 ft | 459 kts | 314° |
| 2026-04-24 11:11 | 19.26865 | 94.69387 | 42795 ft | 459 kts | 313° |
| 2026-04-24 11:12 | 19.31582 | 94.64829 | 42803 ft | 458 kts | 313° |
| 2026-04-24 11:12 | 19.36321 | 94.60303 | 42805 ft | 458 kts | 313° |
| 2026-04-24 11:13 | 19.41034 | 94.55779 | 42806 ft | 457 kts | 313° |
| 2026-04-24 11:13 | 19.45722 | 94.51277 | 42810 ft | 457 kts | 313° |
| 2026-04-24 11:14 | 19.50434 | 94.46753 | 42818 ft | 457 kts | 313° |
| 2026-04-24 11:14 | 19.55146 | 94.42220 | 42817 ft | 457 kts | 313° |
| 2026-04-24 11:15 | 19.59856 | 94.37689 | 42809 ft | 456 kts | 313° |
| 2026-04-24 11:15 | 19.64514 | 94.33202 | 42815 ft | 455 kts | 313° |
| 2026-04-24 11:16 | 19.69206 | 94.28680 | 42812 ft | 454 kts | 313° |
| 2026-04-24 11:16 | 19.73862 | 94.24188 | 42818 ft | 454 kts | 313° |
| 2026-04-24 11:17 | 19.78541 | 94.19672 | 42817 ft | 454 kts | 312° |
| 2026-04-24 11:17 | 19.83225 | 94.15144 | 42819 ft | 454 kts | 312° |
| 2026-04-24 11:18 | 19.87908 | 94.10617 | 42815 ft | 453 kts | 312° |
| 2026-04-24 11:18 | 19.92545 | 94.06128 | 42808 ft | 453 kts | 312° |
| 2026-04-24 11:19 | 19.97207 | 94.01612 | 42810 ft | 452 kts | 312° |
| 2026-04-24 11:19 | 20.01831 | 93.97129 | 42816 ft | 452 kts | 312° |
| 2026-04-24 11:20 | 20.06494 | 93.92605 | 42810 ft | 452 kts | 312° |
| 2026-04-24 11:20 | 20.11152 | 93.88082 | 42814 ft | 453 kts | 312° |
| 2026-04-24 11:21 | 20.15788 | 93.83576 | 42814 ft | 452 kts | 312° |
| 2026-04-24 11:21 | 20.20431 | 93.79059 | 42807 ft | 452 kts | 312° |
| 2026-04-24 11:22 | 20.25084 | 93.74529 | 42807 ft | 451 kts | 312° |
| 2026-04-24 11:22 | 20.29700 | 93.70030 | 42813 ft | 452 kts | 312° |
| 2026-04-24 11:23 | 20.34318 | 93.65529 | 42809 ft | 451 kts | 312° |
| 2026-04-24 11:23 | 20.38958 | 93.60999 | 42805 ft | 451 kts | 312° |
| 2026-04-24 11:24 | 20.43567 | 93.56497 | 42806 ft | 451 kts | 312° |
| 2026-04-24 11:24 | 20.48196 | 93.51971 | 42801 ft | 450 kts | 312° |
| 2026-04-24 11:25 | 20.52827 | 93.47439 | 42801 ft | 450 kts | 311° |
| 2026-04-24 11:25 | 20.57423 | 93.42938 | 42796 ft | 450 kts | 312° |
| 2026-04-24 11:26 | 20.62027 | 93.38424 | 42785 ft | 449 kts | 312° |
| 2026-04-24 11:26 | 20.66636 | 93.33902 | 42792 ft | 451 kts | 311° |
| 2026-04-24 11:27 | 20.71219 | 93.29404 | 42790 ft | 450 kts | 311° |
| 2026-04-24 11:27 | 20.75836 | 93.24866 | 42794 ft | 449 kts | 311° |
| 2026-04-24 11:28 | 20.80439 | 93.20339 | 42791 ft | 449 kts | 311° |
| 2026-04-24 11:28 | 20.85009 | 93.15839 | 42788 ft | 448 kts | 311° |
| 2026-04-24 11:29 | 20.89598 | 93.11317 | 42782 ft | 448 kts | 311° |
| 2026-04-24 11:29 | 20.94189 | 93.06789 | 42778 ft | 449 kts | 311° |
| 2026-04-24 11:30 | 20.98754 | 93.02283 | 42776 ft | 448 kts | 311° |
| 2026-04-24 11:30 | 21.03341 | 92.97753 | 42780 ft | 448 kts | 311° |
| 2026-04-24 11:31 | 21.07898 | 92.93247 | 42784 ft | 448 kts | 311° |
| 2026-04-24 11:31 | 21.12493 | 92.88699 | 42782 ft | 448 kts | 311° |
| 2026-04-24 11:32 | 21.17071 | 92.84165 | 42781 ft | 448 kts | 311° |
| 2026-04-24 11:32 | 21.21613 | 92.79662 | 42780 ft | 446 kts | 311° |
| 2026-04-24 11:33 | 21.26184 | 92.75125 | 42776 ft | 448 kts | 311° |
| 2026-04-24 11:33 | 21.30755 | 92.70588 | 42782 ft | 447 kts | 311° |
| 2026-04-24 11:34 | 21.35322 | 92.66046 | 42782 ft | 447 kts | 311° |
| 2026-04-24 11:34 | 21.39859 | 92.61533 | 42781 ft | 447 kts | 311° |
| 2026-04-24 11:35 | 21.44412 | 92.56999 | 42781 ft | 446 kts | 311° |
| 2026-04-24 11:35 | 21.48962 | 92.52463 | 42786 ft | 446 kts | 311° |
| 2026-04-24 11:36 | 21.53526 | 92.47912 | 42793 ft | 447 kts | 311° |
| 2026-04-24 11:36 | 21.58055 | 92.43390 | 42786 ft | 446 kts | 311° |
| 2026-04-24 11:37 | 21.62604 | 92.38843 | 42793 ft | 446 kts | 311° |
| 2026-04-24 11:37 | 21.67173 | 92.34326 | 42797 ft | 448 kts | 315° |
| 2026-04-24 11:38 | 21.72054 | 92.30118 | 42787 ft | 449 kts | 314° |
| 2026-04-24 11:38 | 21.76902 | 92.25916 | 42797 ft | 450 kts | 315° |
| 2026-04-24 11:39 | 21.81801 | 92.21681 | 42791 ft | 450 kts | 314° |
| 2026-04-24 11:39 | 21.86653 | 92.17473 | 42784 ft | 450 kts | 314° |
| 2026-04-24 11:40 | 21.91533 | 92.13244 | 42788 ft | 450 kts | 314° |
| 2026-04-24 11:40 | 21.96399 | 92.08996 | 42785 ft | 449 kts | 314° |
| 2026-04-24 11:41 | 22.01157 | 92.04718 | 42785 ft | 448 kts | 314° |
| 2026-04-24 11:41 | 22.05984 | 92.00437 | 42784 ft | 448 kts | 314° |
| 2026-04-24 11:42 | 22.10791 | 91.96140 | 42785 ft | 448 kts | 314° |
| 2026-04-24 11:42 | 22.15569 | 91.91878 | 42779 ft | 447 kts | 314° |
| 2026-04-24 11:43 | 22.20364 | 91.87591 | 42783 ft | 447 kts | 314° |
| 2026-04-24 11:43 | 22.25128 | 91.83331 | 42771 ft | 447 kts | 313° |
| 2026-04-24 11:44 | 22.29910 | 91.79039 | 42777 ft | 447 kts | 313° |
| 2026-04-24 11:44 | 22.34698 | 91.74731 | 42777 ft | 447 kts | 313° |
| 2026-04-24 11:45 | 22.39454 | 91.70454 | 42698 ft | 445 kts | 313° |
| 2026-04-24 11:45 | 22.41832 | 91.68313 | 42197 ft | 443 kts | 313° |
| 2026-04-24 11:45 | 22.44198 | 91.66178 | 41575 ft | 443 kts | 313° |
| 2026-04-24 11:46 | 22.46569 | 91.64040 | 40937 ft | 443 kts | 313° |
| 2026-04-24 11:46 | 22.48941 | 91.61902 | 40309 ft | 443 kts | 313° |
| 2026-04-24 11:46 | 22.51284 | 91.59790 | 39695 ft | 443 kts | 313° |
| 2026-04-24 11:46 | 22.53648 | 91.57655 | 39061 ft | 443 kts | 313° |
| 2026-04-24 11:47 | 22.56014 | 91.55518 | 38433 ft | 442 kts | 313° |
| 2026-04-24 11:47 | 22.58384 | 91.53377 | 37656 ft | 443 kts | 313° |
| 2026-04-24 11:47 | 22.60749 | 91.51237 | 36840 ft | 444 kts | 313° |
| 2026-04-24 11:47 | 22.63122 | 91.49087 | 36004 ft | 445 kts | 313° |
| 2026-04-24 11:48 | 22.65500 | 91.46933 | 35147 ft | 447 kts | 313° |
| 2026-04-24 11:48 | 22.67893 | 91.44765 | 34252 ft | 449 kts | 313° |
| 2026-04-24 11:48 | 22.70274 | 91.42606 | 33206 ft | 453 kts | 314° |
| 2026-04-24 11:48 | 22.72697 | 91.40407 | 32346 ft | 452 kts | 314° |
| 2026-04-24 11:49 | 22.75105 | 91.38229 | 31686 ft | 447 kts | 314° |
| 2026-04-24 11:49 | 22.77488 | 91.36066 | 30997 ft | 443 kts | 315° |
| 2026-04-24 11:49 | 22.79843 | 91.33924 | 30333 ft | 440 kts | 315° |
| 2026-04-24 11:49 | 22.82186 | 91.31793 | 29613 ft | 438 kts | 315° |
| 2026-04-24 11:50 | 22.84523 | 91.29670 | 28829 ft | 436 kts | 315° |
| 2026-04-24 11:50 | 22.86842 | 91.27562 | 28065 ft | 433 kts | 316° |
| 2026-04-24 11:50 | 22.89121 | 91.25489 | 27330 ft | 431 kts | 316° |
| 2026-04-24 11:50 | 22.91419 | 91.23396 | 26613 ft | 429 kts | 316° |
| 2026-04-24 11:51 | 22.93700 | 91.21319 | 25889 ft | 427 kts | 317° |
| 2026-04-24 11:51 | 22.95970 | 91.19251 | 25201 ft | 425 kts | 317° |
| 2026-04-24 11:51 | 22.97466 | 91.17887 | 24743 ft | 424 kts | 317° |
| 2026-04-24 11:51 | 22.99723 | 91.15830 | 24054 ft | 422 kts | 318° |
| 2026-04-24 11:52 | 23.01975 | 91.13775 | 23355 ft | 422 kts | 319° |
| 2026-04-24 11:52 | 23.04947 | 91.11065 | 22308 ft | 420 kts | 319° |
| 2026-04-24 11:52 | 23.06432 | 91.09710 | 21823 ft | 418 kts | 319° |
| 2026-04-24 11:52 | 23.08639 | 91.07694 | 21456 ft | 407 kts | 319° |
| 2026-04-24 11:53 | 23.11469 | 91.05109 | 21119 ft | 389 kts | 319° |
| 2026-04-24 11:53 | 23.12840 | 91.03854 | 20633 ft | 390 kts | 319° |
| 2026-04-24 11:53 | 23.14924 | 91.01946 | 19804 ft | 394 kts | 319° |
| 2026-04-24 11:53 | 23.17033 | 91.00017 | 18989 ft | 398 kts | 319° |
| 2026-04-24 11:54 | 23.19162 | 90.98072 | 18138 ft | 402 kts | 319° |
| 2026-04-24 11:54 | 23.21336 | 90.96132 | 17162 ft | 406 kts | 320° |
| 2026-04-24 11:54 | 23.23531 | 90.94191 | 16307 ft | 406 kts | 320° |
| 2026-04-24 11:54 | 23.25708 | 90.92245 | 15532 ft | 403 kts | 320° |
| 2026-04-24 11:55 | 23.27857 | 90.90310 | 14798 ft | 398 kts | 320° |
| 2026-04-24 11:55 | 23.29965 | 90.88418 | 13805 ft | 390 kts | 320° |
| 2026-04-24 11:55 | 23.32024 | 90.86576 | 12783 ft | 383 kts | 320° |
| 2026-04-24 11:55 | 23.34063 | 90.84750 | 11750 ft | 374 kts | 320° |
| 2026-04-24 11:56 | 23.36057 | 90.82963 | 10741 ft | 366 kts | 320° |
| 2026-04-24 11:56 | 23.38006 | 90.81218 | 10088 ft | 351 kts | 320° |
| 2026-04-24 11:56 | 23.39770 | 90.79640 | 9810 ft | 309 kts | 320° |
| 2026-04-24 11:56 | 23.41348 | 90.78226 | 9466 ft | 279 kts | 320° |
| 2026-04-24 11:57 | 23.42801 | 90.76924 | 9148 ft | 270 kts | 320° |
| 2026-04-24 11:57 | 23.44241 | 90.75632 | 8836 ft | 269 kts | 320° |
| 2026-04-24 11:57 | 23.45699 | 90.74324 | 8526 ft | 271 kts | 320° |
| 2026-04-24 11:57 | 23.47153 | 90.73021 | 8204 ft | 271 kts | 320° |
| 2026-04-24 11:58 | 23.48596 | 90.71726 | 7876 ft | 263 kts | 320° |
| 2026-04-24 11:58 | 23.49998 | 90.70467 | 7603 ft | 266 kts | 320° |
| 2026-04-24 11:58 | 23.51364 | 90.69085 | 7459 ft | 272 kts | 316° |
| 2026-04-24 11:58 | 23.52779 | 90.67728 | 7145 ft | 271 kts | 319° |
| 2026-04-24 11:59 | 23.54207 | 90.66385 | 6797 ft | 269 kts | 317° |
| 2026-04-24 11:59 | 23.55575 | 90.65046 | 6452 ft | 267 kts | 317° |
| 2026-04-24 11:59 | 23.56951 | 90.63680 | 6108 ft | 266 kts | 317° |
| 2026-04-24 11:59 | 23.58327 | 90.62326 | 5697 ft | 266 kts | 317° |
| 2026-04-24 12:00 | 23.59687 | 90.60994 | 5268 ft | 264 kts | 317° |
| 2026-04-24 12:00 | 23.61047 | 90.59662 | 4831 ft | 261 kts | 317° |
| 2026-04-24 12:00 | 23.62375 | 90.58328 | 4398 ft | 258 kts | 312° |
| 2026-04-24 12:00 | 23.63456 | 90.56783 | 3956 ft | 255 kts | 309° |
| 2026-04-24 12:01 | 23.64702 | 90.55408 | 3527 ft | 255 kts | 319° |
| 2026-04-24 12:01 | 23.66117 | 90.54248 | 3086 ft | 254 kts | 323° |
| 2026-04-24 12:01 | 23.67549 | 90.53118 | 2643 ft | 253 kts | 323° |
| 2026-04-24 12:01 | 23.68971 | 90.51992 | 2227 ft | 252 kts | 323° |
| 2026-04-24 12:02 | 23.70370 | 90.50878 | 2005 ft | 241 kts | 323° |
| 2026-04-24 12:02 | 23.71653 | 90.49857 | 2020 ft | 214 kts | 323° |
| 2026-04-24 12:02 | 23.72777 | 90.48963 | 2010 ft | 187 kts | 323° |
| 2026-04-24 12:02 | 23.73782 | 90.48163 | 2006 ft | 177 kts | 323° |
| 2026-04-24 12:03 | 23.74777 | 90.47371 | 1949 ft | 178 kts | 323° |
| 2026-04-24 12:03 | 23.75765 | 90.46591 | 1736 ft | 174 kts | 324° |
| 2026-04-24 12:03 | 23.76686 | 90.45860 | 1529 ft | 157 kts | 324° |
| 2026-04-24 12:03 | 23.77566 | 90.45158 | 1326 ft | 154 kts | 324° |
| 2026-04-24 12:04 | 23.78432 | 90.44466 | 1131 ft | 154 kts | 324° |
| 2026-04-24 12:04 | 23.79297 | 90.43782 | 942 ft | 153 kts | 325° |
| 2026-04-24 12:04 | 23.80163 | 90.43096 | 764 ft | 158 kts | 325° |
| 2026-04-24 12:04 | 23.81065 | 90.42377 | 569 ft | 160 kts | 324° |
| 2026-04-24 12:05 | 23.81975 | 90.41652 | 358 ft | 163 kts | 325° |
| 2026-04-24 12:05 | 23.82889 | 90.40933 | 150 ft | 161 kts | 323° |
| 2026-04-24 12:05 | 23.83763 | 90.40235 | 45 ft | 147 kts | 323° |
| 2026-04-24 12:05 | 23.84440 | 90.39697 | 42 ft | 87 kts | 324° |
| 2026-04-24 12:06 | 23.84803 | 90.39413 | 44 ft | 42 kts | 329° |
| 2026-04-24 12:06 | 23.84993 | 90.39343 | 42 ft | 18 kts | 353° |
| 2026-04-24 12:06 | 23.85120 | 90.39335 | 42 ft | 18 kts | 7° |
| 2026-04-24 12:06 | 23.85241 | 90.39384 | 42 ft | 19 kts | 31° |
| 2026-04-24 12:07 | 23.85330 | 90.39483 | 41 ft | 13 kts | 55° |
| 2026-04-24 12:07 | 23.85378 | 90.39573 | 42 ft | 12 kts | 79° |
| 2026-04-24 12:07 | 23.85342 | 90.39644 | 42 ft | 10 kts | 137° |
| 2026-04-24 12:07 | 23.85280 | 90.39696 | 42 ft | 12 kts | 144° |
| 2026-04-24 12:08 | 23.85205 | 90.39755 | 42 ft | 14 kts | 144° |
| 2026-04-24 12:08 | 23.85125 | 90.39830 | 41 ft | 14 kts | 121° |
| 2026-04-24 12:08 | 23.85144 | 90.39926 | 42 ft | 14 kts | 55° |
| 2026-04-24 12:08 | 23.85159 | 90.40000 | 42 ft | 7 kts | 112° |
| 2026-04-24 12:09 | 23.85123 | 90.40048 | 42 ft | 10 kts | 139° |
| 2026-04-24 12:09 | 23.85060 | 90.40100 | 42 ft | 13 kts | 144° |
| 2026-04-24 12:09 | 23.84975 | 90.40154 | 42 ft | 15 kts | 160° |
| 2026-04-24 12:09 | 23.84921 | 90.40188 | 42 ft | 2 kts | 113° |
| 2026-04-24 12:10 | 23.84921 | 90.40198 | 42 ft | 2 kts | 95° |
| 2026-04-24 12:10 | 23.84926 | 90.40219 | 42 ft | 4 kts | 75° |
| 2026-04-24 12:10 | 23.84941 | 90.40247 | 40 ft | 0 kts | 56° |